Missouri Valley, Iowa
Current Conditions -  °F | °C
As of 8:15 AM on Monday 22 Dec 2014 (Local Time) from KBTA Reporting Station
Light Rain Light Rain  
Wind Chill: 36°   Ceiling: 400
Heat Index: 42°   Visibility: 7mi
Dew Point: 40°   Wind: 10mph
Humidity: 93%   Direction: 150°SSE
Pressure: 29.51"   Gusts: 20mph
Location:  41.56°N, 95.89°W
Report Text: KBTA 221415Z AUTO 15009G17KT 7SM -RA OVC004 06/05 A2951 RMK AO2 P0001 T00560045
Loading
Personal Weather Stations






























Interactive Weather Map New forecast layout! Learn more

10-Day Weather Forecast

Advertisements
Track Severe Weather on mobile